createdAt,value
2017-12-11T00:00:56.448Z,9.3
2017-12-11T00:10:56.157Z,4.8
2017-12-11T00:20:56.446Z,4.6
2017-12-11T00:30:56.209Z,6.0
2017-12-11T00:40:55.902Z,3.2
2017-12-11T00:50:57.160Z,3.8
2017-12-11T01:00:55.839Z,4.0
2017-12-11T01:10:56.513Z,3.3
2017-12-11T01:20:56.443Z,3.5
2017-12-11T01:30:56.191Z,2.3
2017-12-11T01:40:55.881Z,2.8
2017-12-11T01:50:56.562Z,3.4
2017-12-11T02:00:56.291Z,2.7
2017-12-11T02:10:56.276Z,2.7
2017-12-11T02:20:56.136Z,2.6
2017-12-11T02:30:55.830Z,2.7
2017-12-11T02:40:56.528Z,2.8
2017-12-11T02:50:56.219Z,3.1
2017-12-11T03:00:56.145Z,3.4
2017-12-11T03:10:56.332Z,2.7
2017-12-11T03:20:56.274Z,2.4
2017-12-11T03:30:56.223Z,2.3
2017-12-11T03:40:56.248Z,2.3
2017-12-11T03:50:55.944Z,2.3
2017-12-11T04:00:56.795Z,2.0
2017-12-11T04:10:56.930Z,2.1
2017-12-11T04:20:56.906Z,1.8
2017-12-11T04:30:57.597Z,1.9
2017-12-11T04:40:56.296Z,2.4
2017-12-11T04:50:56.190Z,2.1
2017-12-11T05:00:56.080Z,2.8
2017-12-11T05:10:56.259Z,4.2
2017-12-11T05:20:56.096Z,3.0
2017-12-11T05:30:56.444Z,3.2
2017-12-11T05:40:56.170Z,3.2
2017-12-11T05:50:56.687Z,2.8
2017-12-11T06:00:56.783Z,3.0
2017-12-11T06:10:56.595Z,2.5
2017-12-11T06:20:56.929Z,5.7
2017-12-11T06:30:56.719Z,3.1
2017-12-11T06:40:57.109Z,2.8
2017-12-11T06:50:55.983Z,3.5
2017-12-11T07:00:56.647Z,3.6
2017-12-11T07:10:56.769Z,7.5
2017-12-11T07:20:56.749Z,5.8
2017-12-11T07:30:56.709Z,6.0
2017-12-11T07:40:57.215Z,5.7
2017-12-11T07:50:55.946Z,9.8
2017-12-11T08:00:57.309Z,4.4
2017-12-11T08:10:56.240Z,5.8
2017-12-11T08:20:56.389Z,7.5
2017-12-11T08:30:56.092Z,8.8
2017-12-11T08:40:56.977Z,5.5
2017-12-11T08:50:56.695Z,6.4
2017-12-11T09:00:56.487Z,5.6
2017-12-11T09:10:56.741Z,6.9
2017-12-11T09:20:56.936Z,4.0
2017-12-11T09:30:57.472Z,6.2
2017-12-11T09:40:56.200Z,4.1
2017-12-11T09:50:55.949Z,7.0
2017-12-11T10:00:56.741Z,5.7
2017-12-11T10:10:56.915Z,7.5
2017-12-11T10:20:56.749Z,10.1
2017-12-11T10:30:56.451Z,5.7
2017-12-11T10:40:56.714Z,5.7
2017-12-11T10:50:57.047Z,7.3
2017-12-11T11:00:56.782Z,5.5
2017-12-11T11:10:56.517Z,6.2
2017-12-11T11:20:56.480Z,4.5
2017-12-11T11:30:57.012Z,7.2
2017-12-11T11:40:56.874Z,6.7
2017-12-11T11:50:56.831Z,6.4
2017-12-11T12:00:56.476Z,5.1
2017-12-11T12:10:56.285Z,6.2
2017-12-11T12:20:56.675Z,6.8
2017-12-11T12:30:56.429Z,5.2
2017-12-11T12:40:56.392Z,6.5
2017-12-11T12:50:56.429Z,7.3
2017-12-11T13:00:56.320Z,6.3
2017-12-11T13:10:56.937Z,7.8
2017-12-11T13:20:57.196Z,5.2
2017-12-11T13:30:56.774Z,6.9
2017-12-11T13:40:57.362Z,7.0
2017-12-11T13:50:56.311Z,6.9
2017-12-11T14:00:56.087Z,7.3
2017-12-11T14:10:56.839Z,8.9
2017-12-11T14:20:57.191Z,6.7
2017-12-11T14:30:56.522Z,5.4
2017-12-11T14:40:56.555Z,5.0
2017-12-11T14:50:56.325Z,7.0
2017-12-11T15:00:56.410Z,8.2
2017-12-11T15:10:56.326Z,7.1
2017-12-11T15:20:57.029Z,7.1
2017-12-11T15:30:56.814Z,9.5
2017-12-11T15:40:56.554Z,10.9
2017-12-11T15:50:56.987Z,7.9
2017-12-11T16:00:56.782Z,7.4
2017-12-11T16:10:56.939Z,7.5
2017-12-11T16:20:56.923Z,8.6
2017-12-11T16:30:56.781Z,6.3
2017-12-11T16:40:56.571Z,6.8
2017-12-11T16:50:56.469Z,6.9
2017-12-11T17:00:56.664Z,9.0
2017-12-11T17:10:56.660Z,8.9
2017-12-11T17:20:56.792Z,6.7
2017-12-11T17:30:56.962Z,8.4
2017-12-11T17:40:56.708Z,8.7
2017-12-11T17:50:56.613Z,7.5
2017-12-11T18:00:56.325Z,7.8
2017-12-11T18:10:56.350Z,7.3
2017-12-11T18:20:56.555Z,6.3
2017-12-11T18:30:56.348Z,7.6
2017-12-11T18:40:56.558Z,8.9
2017-12-11T18:50:57.346Z,7.6
2017-12-11T19:00:56.090Z,6.2
2017-12-11T19:10:57.338Z,5.9
2017-12-11T19:20:56.709Z,7.5
2017-12-11T19:30:56.780Z,6.4
2017-12-11T19:40:56.670Z,7.1
2017-12-11T19:50:56.809Z,4.6
2017-12-11T20:00:57.195Z,4.0
2017-12-11T20:10:56.486Z,5.3
2017-12-11T20:20:57.058Z,3.8
2017-12-11T20:30:57.413Z,5.0
2017-12-11T20:40:57.040Z,5.8
2017-12-11T20:50:57.044Z,4.8
2017-12-11T21:00:57.016Z,5.8
2017-12-11T21:10:56.894Z,7.2
2017-12-11T21:20:57.359Z,5.5
2017-12-11T21:30:56.267Z,5.9
2017-12-11T21:40:55.973Z,7.4
2017-12-11T21:50:57.003Z,6.0
2017-12-11T22:00:56.919Z,6.8
2017-12-11T22:10:57.909Z,7.6
2017-12-11T22:20:56.745Z,5.0
2017-12-11T22:30:56.562Z,4.0
2017-12-11T22:40:56.547Z,5.1
2017-12-11T22:50:57.499Z,5.6
2017-12-11T23:00:56.319Z,4.0
2017-12-11T23:10:56.132Z,6.2
2017-12-11T23:20:56.148Z,4.1
2017-12-11T23:30:56.900Z,5.3
2017-12-11T23:40:57.020Z,7.0
2017-12-11T23:50:57.012Z,4.8
